Kissimmee Gateway Airport
KISM : now visible

Airfield :











YOU CAN JOIN US ON...

 
LOGIN :

Register | Disclaimer

   EN    FR    IT 

 









Legend :    VFR   Marginal VFR   IFR   Intensive IFR   Very Intensive IFR
Visi :
Ceiling :
>= 8 km
>= 3000ft
5 to 8 km
1000 to 3000 ft
1500m to 5 km
500 to 1000 ft
800 to 1500m
200 to 500 ft
< 800m
< 200 ft
Symbols :   Thunderstorms  Fog  Heavy snow  Heavy precipitations  Wind > 20 kt






- Airport Elevation : 82 ft


KISM - Kissimmee Gateway

CURRENT METAR :
  • 251756Z 13010KT 10SM SCT048 32/21 A3010 RMK AO2 SLP191 6//// T03170206 10317 20239 58010 PNO $

EXPIRED METARs :
  • 251656Z 13008G15KT 10SM FEW048 31/21 A3011 RMK AO2 SLP195 T03060211 PNO $
  • 251556Z 16007KT 10SM SCT035 29/22 A3013 RMK AO2 SLP201 T02940217 PNO $

TAF KISM
Valid from the 25 at 18:00 until the 26 at 18:00 UTC


251724Z 2518/2618 13012KT P6SM SCT040 BKN250
FM260000 11010KT P6SM FEW040 BKN250
FM260200 12005KT P6SM BKN250
FM261500 14009KT P6SM SCT035 BKN250
KZMA FIR / North America



MET'MAP, your aeronautical weather chart ! - Copyright ORBIFLY December 2007 - Disclaimer

ORBIFLY MET'MAP TEAM :

Programming & Development : Alexandra Zaïnal
Original concept : Baudouin d'Aumeries
Technical & hardware support : Manuel Goepfert
Assistance : Marc-Olivier Méhu

Contact : metmap@orbifly.com




SOURCES & CREDITS :

   NOAA       Earth
Advisory